Time;durP1;ratioP1;P1;durP2;ratioP2;P2;SDS_P1;SDS_P2;PMS_P1;PMS_P2;Temp;Humidity;BMP_temperature;BMP_pressure;BME280_temperature;BME280_humidity;BME280_pressure;Samples;Min_cycle;Max_cycle;Signal;HPM_P1;HPM_P2
2022/11/10 00:00:32;;;;;;;51.28;26.95;;;9.00;99.90;;;;;;4975824;28;20034;-61
2022/11/10 00:03:03;;;;;;;49.13;26.55;;;9.00;99.90;;;;;;4993303;28;20482;-62
2022/11/10 00:05:29;;;;;;;52.30;27.13;;;8.90;99.90;;;;;;4993531;28;20457;-60
2022/11/10 00:07:55;;;;;;;60.08;27.58;;;8.90;99.90;;;;;;4992989;28;20482;-63
2022/11/10 00:10:20;;;;;;;53.80;27.20;;;8.80;99.90;;;;;;4992846;28;20035;-64
2022/11/10 00:12:46;;;;;;;53.53;28.98;;;8.80;99.90;;;;;;4993000;28;20030;-62
2022/11/10 00:18:33;;;;;;;52.65;27.83;;;8.80;99.90;;;;;;4982355;28;20058;-61
2022/11/10 00:21:04;;;;;;;55.22;28.60;;;8.70;99.90;;;;;;4973448;28;20395;-64
2022/11/10 00:23:29;;;;;;;56.38;27.70;;;8.70;99.90;;;;;;4973441;28;20038;-61
2022/11/10 00:25:55;;;;;;;53.63;28.60;;;8.70;99.90;;;;;;4973639;28;20476;-63
2022/11/10 00:28:21;;;;;;;49.05;26.00;;;8.70;99.90;;;;;;4973252;28;20039;-64
2022/11/10 00:30:46;;;;;;;49.08;27.90;;;8.70;99.90;;;;;;4973402;28;20078;-60
2022/11/10 00:33:12;;;;;;;52.97;28.70;;;8.70;99.90;;;;;;4973127;28;20034;-61
2022/11/10 00:35:37;;;;;;;47.13;25.80;;;8.70;99.90;;;;;;4973623;28;20123;-65
2022/11/10 00:38:03;;;;;;;46.78;25.30;;;8.70;99.90;;;;;;4972959;28;20063;-63
2022/11/10 00:40:29;;;;;;;50.05;26.10;;;8.60;99.90;;;;;;4973288;28;20455;-60
2022/11/10 00:42:54;;;;;;;45.70;25.83;;;8.60;99.90;;;;;;4972372;28;20038;-62
2022/11/10 00:45:20;;;;;;;50.40;26.75;;;8.70;99.90;;;;;;4971669;28;20019;-63
2022/11/10 00:47:45;;;;;;;51.40;25.92;;;8.60;99.90;;;;;;4973124;28;20502;-62
2022/11/10 00:50:11;;;;;;;48.72;26.52;;;8.70;99.90;;;;;;4972910;28;20454;-62
2022/11/10 00:52:37;;;;;;;49.92;25.60;;;8.60;99.90;;;;;;4972914;28;20121;-62
2022/11/10 00:55:02;;;;;;;55.55;29.13;;;8.70;99.90;;;;;;4971039;28;20026;-65
2022/11/10 00:57:28;;;;;;;56.05;27.10;;;8.60;99.90;;;;;;4990141;28;20085;-64
2022/11/10 00:59:55;;;;;;;55.63;28.08;;;8.60;99.90;;;;;;4992009;28;20042;-63
2022/11/10 01:02:21;;;;;;;56.50;28.02;;;8.60;99.90;;;;;;4991907;28;20109;-64
2022/11/10 01:04:46;;;;;;;55.90;29.90;;;8.60;99.90;;;;;;4992014;28;20125;-60
2022/11/10 01:07:12;;;;;;;59.90;28.83;;;8.60;99.90;;;;;;4991929;28;20042;-62
2022/11/10 01:09:37;;;;;;;57.90;30.20;;;8.60;99.90;;;;;;4991971;28;20041;-62
2022/11/10 01:12:03;;;;;;;59.63;30.27;;;8.60;99.90;;;;;;4991855;28;20486;-64
2022/11/10 01:14:29;;;;;;;62.03;29.80;;;8.60;99.90;;;;;;4992179;28;20105;-65
2022/11/10 01:16:54;;;;;;;61.13;30.65;;;8.60;99.90;;;;;;4974514;28;20383;-60
2022/11/10 01:19:20;;;;;;;59.10;32.30;;;8.60;99.90;;;;;;4972402;28;20019;-60
2022/11/10 01:21:48;;;;;;;64.55;31.77;;;8.60;99.90;;;;;;4972118;28;20035;-60
2022/11/10 01:24:18;;;;;;;66.25;31.70;;;8.60;99.90;;;;;;4972320;28;20023;-58
2022/11/10 01:26:43;;;;;;;62.60;31.85;;;8.60;99.90;;;;;;4972211;28;20098;-60
2022/11/10 01:29:09;;;;;;;70.90;33.35;;;8.60;99.90;;;;;;4972046;28;20105;-61
2022/11/10 01:31:35;;;;;;;63.90;31.75;;;8.50;99.90;;;;;;4971985;28;20051;-64
2022/11/10 01:34:00;;;;;;;68.80;33.72;;;8.50;99.90;;;;;;4971956;28;20061;-64
2022/11/10 01:36:26;;;;;;;64.15;31.85;;;8.50;99.90;;;;;;4971951;28;20482;-62
2022/11/10 01:38:52;;;;;;;69.55;33.72;;;8.50;99.90;;;;;;4971736;28;20491;-62
2022/11/10 01:41:17;;;;;;;65.90;32.03;;;8.50;99.90;;;;;;4972077;28;20022;-62
2022/11/10 01:43:43;;;;;;;73.18;33.67;;;8.50;99.90;;;;;;4971578;28;20073;-64
2022/11/10 01:46:11;;;;;;;62.22;32.40;;;8.50;99.90;;;;;;4971534;28;20096;-61
2022/11/10 01:48:47;;;;;;;71.82;32.75;;;8.50;99.90;;;;;;4971682;28;20455;-62
2022/11/10 01:51:26;;;;;;;68.72;31.85;;;8.40;99.90;;;;;;4971729;28;20055;-61
2022/11/10 01:53:59;;;;;;;68.03;32.97;;;8.40;99.90;;;;;;4971507;28;20031;-63
2022/11/10 01:56:28;;;;;;;67.63;33.47;;;8.30;99.90;;;;;;4970981;28;20027;-66
2022/11/10 01:58:59;;;;;;;69.32;33.88;;;8.30;99.90;;;;;;4971395;28;20051;-67
2022/11/10 02:01:25;;;;;;;69.72;34.03;;;8.30;99.90;;;;;;4971526;28;20023;-60
2022/11/10 02:03:55;;;;;;;72.85;35.97;;;8.30;99.90;;;;;;4971293;28;20111;-59
2022/11/10 02:06:25;;;;;;;70.15;34.13;;;8.40;99.90;;;;;;4971518;28;20080;-60
2022/11/10 02:08:52;;;;;;;73.57;35.47;;;8.30;99.90;;;;;;4971761;28;20124;-65
2022/11/10 02:11:18;;;;;;;66.47;32.90;;;8.40;99.90;;;;;;4971519;28;20058;-59
2022/11/10 02:13:44;;;;;;;69.00;34.35;;;8.40;99.90;;;;;;4971399;28;20046;-65
2022/11/10 02:16:10;;;;;;;70.40;33.40;;;8.40;99.90;;;;;;4971678;28;20026;-64
2022/11/10 02:18:37;;;;;;;69.47;34.13;;;8.40;99.90;;;;;;4971362;28;20031;-63
2022/11/10 02:21:07;;;;;;;71.30;34.70;;;8.40;99.90;;;;;;4971393;28;20041;-61
2022/11/10 02:23:36;;;;;;;69.95;32.75;;;8.40;99.90;;;;;;4971456;28;20022;-62
2022/11/10 02:26:04;;;;;;;64.85;30.75;;;8.50;99.90;;;;;;4971244;28;20065;-63
2022/11/10 02:28:35;;;;;;;67.93;32.75;;;8.50;99.90;;;;;;4971267;28;20037;-59
2022/11/10 02:31:02;;;;;;;66.90;34.10;;;8.60;99.90;;;;;;4970796;28;20073;-65
2022/11/10 02:33:28;;;;;;;75.25;34.97;;;8.50;99.90;;;;;;4970850;28;20085;-65
2022/11/10 02:35:54;;;;;;;73.45;33.85;;;8.50;99.90;;;;;;4970974;28;20035;-65
2022/11/10 02:38:19;;;;;;;65.82;32.38;;;8.50;99.90;;;;;;4971242;28;20038;-60
2022/11/10 02:40:45;;;;;;;70.65;32.17;;;8.60;99.90;;;;;;4971251;28;20019;-61
2022/11/10 02:43:14;;;;;;;72.72;34.45;;;8.60;99.90;;;;;;4970788;28;20034;-62
2022/11/10 02:45:43;;;;;;;66.43;34.22;;;8.70;99.90;;;;;;4971252;28;20023;-64
2022/11/10 02:48:09;;;;;;;66.75;34.58;;;8.70;99.90;;;;;;4970936;28;20048;-60
2022/11/10 02:50:34;;;;;;;78.38;35.63;;;8.60;99.90;;;;;;4971085;28;20031;-60
2022/11/10 02:53:00;;;;;;;74.65;35.88;;;8.60;99.90;;;;;;4984153;28;20493;-59
2022/11/10 02:55:26;;;;;;;76.40;35.40;;;8.70;99.90;;;;;;4990525;28;20150;-60
2022/11/10 02:57:51;;;;;;;70.30;34.83;;;8.70;99.90;;;;;;4990194;28;20141;-61
2022/11/10 03:00:17;;;;;;;81.90;36.45;;;8.70;99.90;;;;;;4990490;28;20057;-65
2022/11/10 03:02:43;;;;;;;82.95;37.05;;;8.70;99.90;;;;;;4990522;28;20025;-62
2022/11/10 03:05:09;;;;;;;76.18;36.47;;;8.70;99.90;;;;;;4990667;28;20035;-64
2022/11/10 03:07:35;;;;;;;79.57;35.65;;;8.70;99.90;;;;;;4975613;28;20065;-61
2022/11/10 03:10:00;;;;;;;75.70;36.53;;;8.70;99.90;;;;;;4994362;28;20133;-63
2022/11/10 03:12:26;;;;;;;76.00;35.22;;;8.80;99.90;;;;;;4994539;28;20040;-67
2022/11/10 03:14:52;;;;;;;77.05;37.05;;;8.80;99.90;;;;;;4994263;28;20065;-62
2022/11/10 03:17:17;;;;;;;74.55;37.00;;;8.80;99.90;;;;;;4976476;28;20042;-61
2022/11/10 03:19:43;;;;;;;79.18;36.70;;;8.90;99.90;;;;;;4994459;28;20029;-63
2022/11/10 03:22:09;;;;;;;79.93;36.08;;;8.90;99.90;;;;;;4994284;28;20030;-61
2022/11/10 03:24:34;;;;;;;78.78;36.67;;;8.90;99.90;;;;;;4994150;28;20022;-59
2022/11/10 03:27:00;;;;;;;80.45;39.88;;;8.90;99.90;;;;;;4994115;28;20039;-59
2022/11/10 03:29:26;;;;;;;72.88;35.72;;;8.90;99.90;;;;;;4993822;28;20034;-60
2022/11/10 03:31:51;;;;;;;76.53;36.50;;;8.90;99.90;;;;;;4993918;28;20041;-62
2022/11/10 03:34:17;;;;;;;78.40;36.25;;;8.90;99.90;;;;;;4993878;28;20026;-65
2022/11/10 03:36:43;;;;;;;76.28;37.35;;;8.80;99.90;;;;;;4993901;28;20030;-62
2022/11/10 03:39:08;;;;;;;79.53;38.28;;;8.90;99.90;;;;;;4993906;28;20100;-65
2022/11/10 03:41:34;;;;;;;72.97;35.08;;;8.90;99.90;;;;;;4993546;28;20022;-62
2022/11/10 03:44:00;;;;;;;75.30;36.45;;;8.90;99.90;;;;;;4993768;28;20462;-60
2022/11/10 03:46:25;;;;;;;81.82;38.45;;;8.90;99.90;;;;;;4975834;28;20117;-62
2022/11/10 03:48:51;;;;;;;76.10;38.65;;;8.90;99.90;;;;;;4993646;28;20462;-63
2022/11/10 03:51:16;;;;;;;77.15;36.80;;;9.00;99.90;;;;;;4993581;28;20026;-60
2022/11/10 03:53:42;;;;;;;87.75;38.65;;;8.90;99.90;;;;;;4993422;28;20034;-59
2022/11/10 03:56:08;;;;;;;77.57;37.28;;;8.90;99.90;;;;;;4993540;28;20019;-62
2022/11/10 03:58:33;;;;;;;82.00;40.05;;;8.90;99.90;;;;;;4993037;28;20054;-67
2022/11/10 04:00:59;;;;;;;73.10;35.95;;;9.00;99.90;;;;;;4993426;28;20026;-64
2022/11/10 04:03:25;;;;;;;82.38;39.08;;;9.00;99.90;;;;;;4993556;28;20035;-63
2022/11/10 04:16:48;;;;;;;77.20;37.25;;;9.00;99.90;;;;;;4993055;28;20034;-65
2022/11/10 04:19:14;;;;;;;79.78;37.05;;;9.00;99.90;;;;;;4991710;28;20398;-67
2022/11/10 04:21:40;;;;;;;79.13;38.53;;;9.00;99.90;;;;;;4975561;28;20034;-65
2022/11/10 04:24:06;;;;;;;81.75;38.80;;;9.00;99.90;;;;;;4993088;28;20101;-64
2022/11/10 04:26:37;;;;;;;82.30;37.25;;;9.00;99.90;;;;;;4992542;28;20050;-60
2022/11/10 04:29:07;;;;;;;89.57;41.70;;;9.00;99.90;;;;;;4992903;28;20030;-61
2022/11/10 04:31:36;;;;;;;87.15;42.08;;;9.00;99.90;;;;;;4993128;28;20023;-65
2022/11/10 04:34:03;;;;;;;91.72;40.55;;;9.00;99.90;;;;;;4993005;28;20034;-63
2022/11/10 04:36:31;;;;;;;83.82;37.90;;;9.00;99.90;;;;;;4992858;28;20347;-64
2022/11/10 04:38:57;;;;;;;87.40;37.70;;;9.10;99.90;;;;;;4992602;28;20453;-61
2022/11/10 04:41:25;;;;;;;84.70;38.83;;;9.10;99.90;;;;;;4992644;28;20454;-63
2022/11/10 04:43:51;;;;;;;87.72;41.03;;;9.00;99.90;;;;;;4992301;28;20113;-60
2022/11/10 04:46:25;;;;;;;84.90;39.15;;;9.10;99.90;;;;;;4992492;28;20070;-63
2022/11/10 04:48:51;;;;;;;88.95;41.17;;;9.10;99.90;;;;;;4992595;28;20033;-64
2022/11/10 04:51:18;;;;;;;85.33;40.97;;;9.10;99.90;;;;;;4992482;28;20065;-60
2022/11/10 04:53:43;;;;;;;94.60;40.58;;;9.10;99.90;;;;;;4973846;28;20093;-63
2022/11/10 04:56:28;;;;;;;87.07;40.55;;;9.10;99.90;;;;;;4972841;28;20031;-64
2022/11/10 04:58:54;;;;;;;92.10;41.88;;;9.10;99.90;;;;;;4972359;28;20059;-63
2022/11/10 05:01:22;;;;;;;114.20;42.20;;;9.10;99.90;;;;;;4972859;28;20035;-63
2022/11/10 05:03:49;;;;;;;101.30;42.05;;;9.10;99.90;;;;;;4976750;28;20077;-64
2022/11/10 05:06:15;;;;;;;85.88;40.70;;;9.10;99.90;;;;;;4991968;28;20513;-60
2022/11/10 05:08:43;;;;;;;88.88;41.28;;;9.10;99.90;;;;;;4992133;28;20030;-64
2022/11/10 05:11:09;;;;;;;84.97;40.83;;;9.10;99.90;;;;;;4991940;28;20030;-60
2022/11/10 05:13:35;;;;;;;97.30;41.92;;;9.10;99.90;;;;;;4991786;28;20069;-61
2022/11/10 05:16:01;;;;;;;94.30;43.53;;;9.10;99.90;;;;;;4991836;28;20070;-63
2022/11/10 05:18:27;;;;;;;92.72;40.53;;;9.10;99.90;;;;;;4992129;28;20039;-61
2022/11/10 05:20:52;;;;;;;95.38;42.05;;;9.10;99.90;;;;;;4991837;28;20422;-62
2022/11/10 05:23:36;;;;;;;96.22;40.88;;;9.10;99.90;;;;;;4991646;28;20033;-64
2022/11/10 05:26:03;;;;;;;91.20;41.63;;;9.10;99.90;;;;;;4991772;28;20109;-60
2022/11/10 05:28:29;;;;;;;88.47;41.08;;;9.10;99.90;;;;;;4991864;28;20034;-63
2022/11/10 05:30:54;;;;;;;87.05;39.17;;;9.10;99.90;;;;;;4991344;28;20034;-61
2022/11/10 05:33:20;;;;;;;91.10;40.65;;;9.20;99.90;;;;;;4991540;28;20034;-59
2022/11/10 05:35:48;;;;;;;96.18;40.60;;;9.20;99.90;;;;;;4991698;28;20053;-58
2022/11/10 05:38:14;;;;;;;91.57;41.83;;;9.20;99.90;;;;;;4991512;28;20157;-64
2022/11/10 05:40:40;;;;;;;93.53;41.78;;;9.20;99.90;;;;;;4991576;28;20629;-62
2022/11/10 05:43:06;;;;;;;92.97;43.70;;;9.20;99.90;;;;;;4991575;28;20019;-60
2022/11/10 05:45:31;;;;;;;93.88;42.72;;;9.20;99.90;;;;;;4991237;28;20034;-59
2022/11/10 05:47:57;;;;;;;91.45;40.88;;;9.10;99.90;;;;;;4991717;28;20042;-59
2022/11/10 05:50:23;;;;;;;95.63;41.15;;;9.10;99.90;;;;;;4990990;28;20058;-58
2022/11/10 05:52:53;;;;;;;94.25;39.95;;;9.10;99.90;;;;;;4983413;28;20030;-60
2022/11/10 05:55:24;;;;;;;87.63;38.90;;;9.10;99.90;;;;;;4985262;28;20476;-59
2022/11/10 05:57:52;;;;;;;91.82;39.50;;;9.10;99.90;;;;;;4986851;28;20046;-60
2022/11/10 06:00:20;;;;;;;91.50;40.80;;;9.00;99.90;;;;;;4989280;28;20034;-58
2022/11/10 06:02:56;;;;;;;95.10;41.35;;;9.00;99.90;;;;;;4989774;28;20423;-60
2022/11/10 06:05:21;;;;;;;91.97;39.65;;;9.00;99.90;;;;;;4987188;28;20640;-60
2022/11/10 06:07:47;;;;;;;93.10;40.88;;;9.10;99.90;;;;;;4989989;28;20121;-61
2022/11/10 06:10:13;;;;;;;104.38;42.67;;;9.10;99.90;;;;;;4989858;28;20026;-59
2022/11/10 06:12:39;;;;;;;100.63;41.63;;;9.10;99.90;;;;;;4989648;28;20101;-60
2022/11/10 06:15:05;;;;;;;98.35;40.80;;;9.00;99.90;;;;;;4989437;28;20014;-60
2022/11/10 06:17:31;;;;;;;96.95;41.92;;;9.00;99.90;;;;;;4989460;28;20049;-60
2022/11/10 06:19:57;;;;;;;102.25;45.47;;;9.00;99.90;;;;;;4989096;28;20030;-58
2022/11/10 06:22:22;;;;;;;98.13;42.85;;;9.00;99.90;;;;;;4986623;28;20045;-59
2022/11/10 06:24:48;;;;;;;103.38;42.72;;;9.10;99.90;;;;;;4972174;28;20023;-60
2022/11/10 06:27:14;;;;;;;100.43;43.47;;;9.00;99.90;;;;;;4971134;28;20067;-58
2022/11/10 06:29:39;;;;;;;106.00;43.78;;;9.00;99.90;;;;;;4971425;28;20437;-57
2022/11/10 06:32:05;;;;;;;93.20;40.90;;;9.00;99.90;;;;;;4971397;28;20544;-58
2022/11/10 06:34:30;;;;;;;96.95;42.63;;;8.90;99.90;;;;;;4971249;28;20027;-55
2022/11/10 06:36:56;;;;;;;105.03;43.38;;;8.90;99.90;;;;;;4970892;28;20394;-59
2022/11/10 06:39:24;;;;;;;104.65;42.45;;;8.90;99.90;;;;;;4970312;28;20082;-61
2022/11/10 06:41:49;;;;;;;108.43;43.70;;;9.00;99.90;;;;;;4970613;28;20026;-60
2022/11/10 06:44:15;;;;;;;106.78;43.83;;;9.00;99.90;;;;;;4969772;28;20038;-60
2022/11/10 06:46:41;;;;;;;102.20;41.78;;;8.90;99.90;;;;;;4969165;28;20066;-60
2022/11/10 06:49:06;;;;;;;104.05;43.90;;;8.90;99.90;;;;;;4970209;28;20031;-60
2022/11/10 06:51:33;;;;;;;105.40;43.08;;;8.90;99.90;;;;;;4970336;28;20105;-59
2022/11/10 06:53:58;;;;;;;95.53;43.17;;;8.90;99.90;;;;;;4984284;28;20042;-61
2022/11/10 06:56:24;;;;;;;110.35;45.33;;;9.00;99.90;;;;;;4990314;28;20026;-61
2022/11/10 06:58:49;;;;;;;104.78;45.78;;;9.00;99.90;;;;;;4990212;28;20512;-61
2022/11/10 07:01:15;;;;;;;107.15;48.30;;;9.00;99.90;;;;;;4990359;28;20037;-57
2022/11/10 07:03:41;;;;;;;122.32;48.78;;;9.00;99.90;;;;;;4971955;28;20037;-56
2022/11/10 07:06:07;;;;;;;126.40;50.42;;;9.00;99.90;;;;;;4989864;28;20158;-58
2022/11/10 07:08:32;;;;;;;121.55;49.85;;;9.00;99.90;;;;;;4989254;28;20058;-59
2022/11/10 07:10:58;;;;;;;121.07;48.55;;;9.10;99.90;;;;;;4988884;28;20026;-58
2022/11/10 07:13:24;;;;;;;114.30;47.72;;;9.10;99.90;;;;;;4971701;28;20019;-60
2022/11/10 07:15:50;;;;;;;126.43;52.10;;;9.10;99.90;;;;;;4988770;28;20015;-60
2022/11/10 07:18:15;;;;;;;122.68;48.58;;;9.10;99.90;;;;;;4988857;28;20022;-58
2022/11/10 07:20:41;;;;;;;123.22;51.60;;;9.20;99.90;;;;;;4988656;28;20121;-61
2022/11/10 07:23:07;;;;;;;109.00;46.95;;;9.20;99.90;;;;;;4988585;28;20031;-62
2022/11/10 07:25:35;;;;;;;106.43;42.97;;;9.20;99.90;;;;;;4988867;28;20026;-60
2022/11/10 07:28:03;;;;;;;98.45;41.80;;;9.20;99.90;;;;;;4988490;28;20034;-62
2022/11/10 07:30:30;;;;;;;94.80;40.80;;;9.20;99.90;;;;;;4988378;28;20019;-60
2022/11/10 07:33:04;;;;;;;94.65;41.63;;;9.20;99.90;;;;;;4988870;28;20603;-59
2022/11/10 07:35:31;;;;;;;94.53;39.90;;;9.20;99.90;;;;;;4987146;28;20019;-58
2022/11/10 07:38:00;;;;;;;102.80;41.22;;;9.20;99.90;;;;;;4988500;28;20076;-60
2022/11/10 07:40:25;;;;;;;99.20;40.67;;;9.20;99.90;;;;;;4970633;28;20053;-58
2022/11/10 07:42:51;;;;;;;100.78;43.08;;;9.30;99.90;;;;;;4970432;28;20483;-60
2022/11/10 07:45:17;;;;;;;95.35;41.65;;;9.20;99.90;;;;;;4970942;28;20495;-59
2022/11/10 07:47:42;;;;;;;96.30;40.83;;;9.20;99.90;;;;;;4983616;28;20506;-62
2022/11/10 07:50:08;;;;;;;100.90;42.25;;;9.30;99.90;;;;;;4988370;28;20088;-63
2022/11/10 07:52:34;;;;;;;109.72;43.15;;;9.30;99.90;;;;;;4989468;28;20026;-64
2022/11/10 07:55:00;;;;;;;92.60;43.03;;;9.30;99.90;;;;;;4992042;28;20541;-61
2022/11/10 07:57:25;;;;;;;100.90;42.10;;;9.20;99.90;;;;;;4991860;28;20030;-61
2022/11/10 07:59:51;;;;;;;107.25;44.50;;;9.30;99.90;;;;;;4972181;28;20030;-66
2022/11/10 08:02:16;;;;;;;99.90;42.30;;;9.30;99.90;;;;;;4992092;28;20045;-58
2022/11/10 08:04:42;;;;;;;103.45;44.25;;;9.20;99.90;;;;;;4992096;28;20097;-59
2022/11/10 08:07:08;;;;;;;110.13;46.05;;;9.30;99.90;;;;;;4991865;28;20031;-60
2022/11/10 08:09:33;;;;;;;109.38;47.05;;;9.30;99.90;;;;;;4992068;28;20080;-60
2022/11/10 08:11:59;;;;;;;97.55;41.45;;;9.30;99.90;;;;;;4991816;28;20101;-62
2022/11/10 08:14:24;;;;;;;108.47;43.55;;;9.30;99.90;;;;;;4991785;28;20038;-63
2022/11/10 08:16:50;;;;;;;100.32;44.40;;;9.30;99.90;;;;;;4992083;28;20018;-61
2022/11/10 08:19:16;;;;;;;109.18;45.28;;;9.40;99.90;;;;;;4991787;28;20035;-63
2022/11/10 08:21:42;;;;;;;112.35;46.03;;;9.40;99.90;;;;;;4973617;28;20073;-62
2022/11/10 08:24:08;;;;;;;113.85;47.85;;;9.40;99.90;;;;;;4973464;28;20038;-62
2022/11/10 08:26:33;;;;;;;108.13;44.65;;;9.40;99.90;;;;;;4973519;28;20043;-62
2022/11/10 08:28:59;;;;;;;98.55;45.33;;;9.50;99.90;;;;;;4973478;28;20780;-67
2022/11/10 08:31:25;;;;;;;105.78;46.10;;;9.40;99.90;;;;;;4973234;28;20027;-60
2022/11/10 08:33:51;;;;;;;111.40;46.83;;;9.40;99.90;;;;;;4973392;28;20026;-61
2022/11/10 08:36:16;;;;;;;111.15;46.25;;;9.50;99.90;;;;;;4973642;28;20046;-63
2022/11/10 08:38:42;;;;;;;109.90;47.05;;;9.50;99.90;;;;;;4973416;28;20080;-61
2022/11/10 08:41:08;;;;;;;108.65;44.20;;;9.50;99.90;;;;;;4973585;28;20035;-58
2022/11/10 08:43:33;;;;;;;105.70;44.10;;;9.50;99.90;;;;;;4973217;28;20469;-61
2022/11/10 08:46:00;;;;;;;112.43;46.08;;;9.50;99.90;;;;;;4973229;28;20474;-63
2022/11/10 08:48:26;;;;;;;106.05;44.42;;;9.50;99.90;;;;;;4973232;28;20060;-63
2022/11/10 08:50:52;;;;;;;108.82;46.55;;;9.50;99.90;;;;;;4973292;28;20031;-62
2022/11/10 08:53:20;;;;;;;117.05;46.83;;;9.60;99.90;;;;;;4973111;28;20090;-63
2022/11/10 08:55:47;;;;;;;115.15;47.42;;;9.50;99.90;;;;;;4973317;28;20106;-63
2022/11/10 08:58:15;;;;;;;114.00;47.97;;;9.60;99.90;;;;;;4972884;28;20062;-58
2022/11/10 09:00:41;;;;;;;104.30;48.90;;;9.60;99.90;;;;;;4972954;28;20058;-62
2022/11/10 09:03:12;;;;;;;108.85;46.85;;;9.60;99.90;;;;;;4972727;28;20073;-62
2022/11/10 09:05:38;;;;;;;112.45;47.72;;;9.70;99.90;;;;;;4972263;28;20035;-57
2022/11/10 09:08:04;;;;;;;103.95;44.75;;;9.60;99.90;;;;;;4972783;28;20487;-62
2022/11/10 09:10:31;;;;;;;108.15;46.70;;;9.60;99.90;;;;;;4972684;28;20039;-61
2022/11/10 09:13:01;;;;;;;100.90;45.60;;;9.70;99.90;;;;;;4972714;28;20026;-58
2022/11/10 09:15:29;;;;;;;106.40;46.30;;;9.70;99.90;;;;;;4972463;28;20482;-59
2022/11/10 09:18:00;;;;;;;109.85;45.83;;;9.70;99.90;;;;;;4972551;28;20089;-57
2022/11/10 09:20:27;;;;;;;107.28;43.40;;;9.70;99.90;;;;;;4981357;28;20506;-63
2022/11/10 09:22:53;;;;;;;;;;;9.80;99.90;;;;;;4991972;28;20026;-62
2022/11/10 09:25:19;;;;;;;104.05;44.33;;;9.80;99.90;;;;;;4991810;28;19960;-62
2022/11/10 09:27:44;;;;;;;105.05;47.47;;;9.70;99.90;;;;;;4974173;28;20129;-62
2022/11/10 09:30:10;;;;;;;108.15;47.50;;;9.80;99.90;;;;;;4991748;28;20106;-61
2022/11/10 09:32:36;;;;;;;116.10;51.25;;;9.80;99.90;;;;;;4991608;28;20037;-60
2022/11/10 09:35:03;;;;;;;129.20;55.88;;;9.80;99.90;;;;;;4991858;28;20038;-61
2022/11/10 09:37:28;;;;;;;121.70;51.93;;;9.80;99.90;;;;;;4992016;28;20069;-58
2022/11/10 09:39:54;;;;;;;110.57;48.15;;;9.70;99.90;;;;;;4991600;28;20022;-61
2022/11/10 09:42:39;;;;;;;109.75;45.60;;;9.80;99.90;;;;;;4991729;28;20066;-61
2022/11/10 09:45:20;;;;;;;114.63;47.42;;;9.80;99.90;;;;;;4991800;28;20030;-62
2022/11/10 09:47:55;;;;;;;100.50;45.05;;;9.80;99.90;;;;;;4973967;28;20034;-60
2022/11/10 09:50:45;;;;;;;98.63;42.88;;;9.90;99.90;;;;;;4973964;28;20026;-62
2022/11/10 09:53:42;;;;;;;95.03;42.25;;;9.90;99.90;;;;;;4991651;28;20030;-62
2022/11/10 09:56:13;;;;;;;92.13;40.78;;;10.00;99.90;;;;;;4991373;28;20038;-60
2022/11/10 09:58:42;;;;;;;97.78;42.88;;;10.00;99.90;;;;;;4991414;28;20050;-61
2022/11/10 10:01:10;;;;;;;94.60;42.70;;;10.10;99.90;;;;;;4990644;28;20044;-57
2022/11/10 10:03:43;;;;;;;99.45;41.28;;;10.10;99.90;;;;;;4972541;28;20478;-63
2022/11/10 10:06:11;;;;;;;97.40;41.88;;;10.10;99.90;;;;;;4990045;28;20497;-58
2022/11/10 10:08:37;;;;;;;100.75;41.55;;;10.20;99.90;;;;;;4989788;28;20034;-60
2022/11/10 10:11:14;;;;;;;87.55;38.45;;;10.30;99.90;;;;;;4987357;28;20023;-58
2022/11/10 10:14:00;;;;;;;88.10;39.40;;;10.30;99.90;;;;;;4989910;28;20449;-60
2022/11/10 10:16:35;;;;;;;78.05;34.45;;;10.40;99.90;;;;;;4969491;28;20865;-57
2022/11/10 10:19:38;;;;;;;80.38;36.22;;;10.40;99.90;;;;;;4989700;28;20021;-61
2022/11/10 10:22:31;;;;;;;68.53;32.75;;;10.50;99.90;;;;;;4987306;28;20050;-60
2022/11/10 10:25:01;;;;;;;70.05;31.08;;;10.60;99.90;;;;;;4989202;28;20030;-62
2022/11/10 10:27:27;;;;;;;64.25;32.15;;;10.60;99.90;;;;;;4987618;28;20033;-63
2022/11/10 10:29:53;;;;;;;66.70;30.65;;;10.70;99.90;;;;;;4989178;28;20155;-58
2022/11/10 10:32:22;;;;;;;66.93;30.75;;;10.70;99.90;;;;;;4971458;28;20034;-58
2022/11/10 10:34:48;;;;;;;62.58;29.77;;;10.70;99.90;;;;;;4970672;28;20034;-61
2022/11/10 10:37:43;;;;;;;64.30;30.08;;;10.80;99.90;;;;;;4970463;28;20118;-63
2022/11/10 10:40:17;;;;;;;69.18;32.45;;;10.80;99.90;;;;;;4969444;28;20027;-62
2022/11/10 10:42:42;;;;;;;61.67;30.58;;;10.80;99.90;;;;;;4969674;28;20038;-60
2022/11/10 10:45:13;;;;;;;57.47;28.20;;;10.80;99.90;;;;;;4969579;28;20579;-60
2022/11/10 10:47:39;;;;;;;60.85;28.90;;;10.90;99.90;;;;;;4968604;28;20538;-62
2022/11/10 10:50:32;;;;;;;65.97;29.23;;;10.90;99.90;;;;;;4968762;28;20027;-63
2022/11/10 10:53:15;;;;;;;64.15;27.60;;;10.90;99.90;;;;;;4970237;28;20031;-59
2022/11/10 10:56:05;;;;;;;59.97;28.13;;;11.00;99.90;;;;;;4970242;28;20113;-61
2022/11/10 10:58:48;;;;;;;65.82;27.38;;;11.10;99.90;;;;;;4962336;28;20201;-61
2022/11/10 11:01:20;;;;;;;61.13;28.63;;;11.10;99.90;;;;;;4968645;28;20062;-58
2022/11/10 11:03:48;;;;;;;54.03;25.90;;;11.10;99.90;;;;;;4970499;28;20070;-58
2022/11/10 11:06:17;;;;;;;52.03;25.92;;;11.10;99.90;;;;;;4987067;28;20034;-64
2022/11/10 11:09:05;;;;;;;50.53;25.55;;;11.10;99.90;;;;;;4986973;28;20114;-60
2022/11/10 11:11:34;;;;;;;59.63;27.65;;;11.20;99.90;;;;;;4989302;28;20449;-63
2022/11/10 11:14:21;;;;;;;49.50;24.02;;;11.20;99.90;;;;;;4989254;28;20435;-59
2022/11/10 11:17:11;;;;;;;47.08;23.23;;;11.30;99.90;;;;;;4989421;28;20029;-63
2022/11/10 11:19:37;;;;;;;49.70;24.88;;;11.30;99.90;;;;;;4989047;28;20026;-62
2022/11/10 11:22:38;;;;;;;46.00;23.23;;;11.40;99.90;;;;;;4971835;28;20482;-63
2022/11/10 11:25:03;;;;;;;47.95;21.75;;;11.40;99.90;;;;;;4989607;28;20023;-62
2022/11/10 11:27:44;;;;;;;41.58;22.15;;;11.50;99.90;;;;;;4990363;28;20397;-64
2022/11/10 11:30:17;;;;;;;42.75;21.63;;;11.50;99.90;;;;;;4993460;28;20053;-61
2022/11/10 11:33:16;;;;;;;37.42;18.83;;;11.60;99.90;;;;;;4993217;28;20033;-62
2022/11/10 11:36:04;;;;;;;38.88;21.15;;;11.80;99.90;;;;;;4924383;28;20035;-59
2022/11/10 11:39:06;;;;;;;33.42;18.13;;;11.90;99.90;;;;;;4973625;28;20038;-62
2022/11/10 11:41:56;;;;;;;43.85;22.63;;;12.00;99.90;;;;;;4943421;29;20563;-62
2022/11/10 11:44:40;;;;;;;33.42;18.55;;;12.10;99.90;;;;;;4970680;28;20046;-62
2022/11/10 11:47:29;;;;;;;32.30;17.85;;;12.10;99.90;;;;;;4975690;28;20122;-59
2022/11/10 11:50:10;;;;;;;31.92;17.83;;;12.20;99.90;;;;;;4973487;28;20058;-60
2022/11/10 11:52:49;;;;;;;35.90;17.77;;;12.30;99.90;;;;;;4973231;28;20027;-60
2022/11/10 11:55:43;;;;;;;29.50;17.88;;;12.40;99.90;;;;;;4973370;28;20050;-62
2022/11/10 11:58:17;;;;;;;35.58;16.95;;;12.70;99.90;;;;;;4972870;28;20062;-61
2022/11/10 12:00:48;;;;;;;27.45;14.07;;;12.90;99.90;;;;;;4959766;28;20041;-60
2022/11/10 12:03:32;;;;;;;24.38;13.45;;;13.00;99.90;;;;;;4989154;28;20429;-61
2022/11/10 12:06:30;;;;;;;27.33;13.55;;;13.20;99.90;;;;;;4990194;28;20023;-61
2022/11/10 12:09:15;;;;;;;25.45;13.70;;;13.30;99.90;;;;;;4989142;28;20034;-62
2022/11/10 12:11:59;;;;;;;22.40;13.63;;;13.50;99.90;;;;;;4989707;28;20026;-60
2022/11/10 12:14:31;;;;;;;24.60;12.95;;;14.00;99.90;;;;;;4986193;28;20042;-61
2022/11/10 12:17:09;;;;;;;23.20;13.18;;;14.40;99.90;;;;;;4991492;28;20570;-61
2022/11/10 12:19:44;;;;;;;18.33;10.43;;;15.30;99.90;;;;;;4979545;28;20069;-61
2022/11/10 12:22:37;;;;;;;22.50;10.65;;;17.20;99.90;;;;;;4987227;28;20044;-61
2022/11/10 12:25:14;;;;;;;19.13;9.68;;;18.30;99.90;;;;;;4972329;28;20465;-61
2022/11/10 12:27:46;;;;;;;15.57;9.40;;;19.10;99.90;;;;;;4981356;28;20038;-61
2022/11/10 12:30:14;;;;;;;17.90;9.40;;;19.20;99.90;;;;;;4992063;28;20041;-61
2022/11/10 12:32:46;;;;;;;22.90;11.10;;;18.00;99.90;;;;;;4951402;28;20026;-60
2022/11/10 12:35:45;;;;;;;17.33;9.35;;;17.70;99.90;;;;;;4980120;28;20070;-61
2022/11/10 12:38:20;;;;;;;22.23;12.25;;;16.70;99.90;;;;;;4929481;28;20047;-61
2022/11/10 12:40:50;;;;;;;19.92;8.95;;;16.70;99.90;;;;;;4986359;28;20046;-62
2022/11/10 12:43:58;;;;;;;17.60;10.25;;;16.50;99.90;;;;;;4991786;28;20019;-62
2022/11/10 12:46:23;;;;;;;15.15;8.82;;;16.70;99.90;;;;;;4991556;28;20104;-62
2022/11/10 12:48:59;;;;;;;19.30;8.18;;;16.40;99.90;;;;;;4991434;28;20486;-64
2022/11/10 12:51:46;;;;;;;19.15;9.75;;;16.10;99.90;;;;;;4991443;28;20462;-62
2022/11/10 12:54:15;;;;;;;17.35;9.63;;;15.90;99.90;;;;;;4991564;28;20116;-63
2022/11/10 12:56:46;;;;;;;17.13;8.98;;;15.70;99.90;;;;;;4991335;28;20014;-62
2022/11/10 12:59:36;;;;;;;16.73;8.48;;;15.40;99.90;;;;;;4991140;28;20054;-62